Time;durP1;ratioP1;P1;durP2;ratioP2;P2;SDS_P1;SDS_P2;PMS_P1;PMS_P2;Temp;Humidity;BMP_temperature;BMP_pressure;BME280_temperature;BME280_humidity;BME280_pressure;Samples;Min_cycle;Max_cycle;Signal;HPM_P1;HPM_P2
2023/10/05 00:01:13;;;;;;;2.35;1.50;;;17.50;71.00;;;;;;4999940;28;20069;-75
2023/10/05 00:03:43;;;;;;;1.30;1.20;;;17.50;71.00;;;;;;4987096;28;20481;-75
2023/10/05 00:06:14;;;;;;;1.73;1.30;;;17.50;71.00;;;;;;5000133;28;20458;-75
2023/10/05 00:08:44;;;;;;;2.05;1.48;;;17.50;71.10;;;;;;5017395;28;20033;-75
2023/10/05 00:11:22;;;;;;;1.30;1.10;;;17.50;71.10;;;;;;5000076;28;20025;-74
2023/10/05 00:13:52;;;;;;;2.42;1.35;;;17.50;71.20;;;;;;5017428;28;20046;-76
2023/10/05 00:16:20;;;;;;;1.92;1.23;;;17.40;71.10;;;;;;4999964;28;20113;-75
2023/10/05 00:18:50;;;;;;;1.55;1.25;;;17.40;71.10;;;;;;5000235;28;20029;-74
2023/10/05 00:21:21;;;;;;;1.77;1.25;;;17.40;71.20;;;;;;5015507;28;20026;-75
2023/10/05 00:23:54;;;;;;;3.22;1.40;;;17.40;71.20;;;;;;4999287;28;20038;-75
2023/10/05 00:26:20;;;;;;;3.55;1.30;;;17.40;71.20;;;;;;5015903;28;20060;-74
2023/10/05 00:29:01;;;;;;;2.40;1.17;;;17.40;71.20;;;;;;5015793;28;20038;-75
2023/10/05 00:31:27;;;;;;;1.42;1.30;;;17.40;71.20;;;;;;5001975;28;20041;-76
2023/10/05 00:33:56;;;;;;;2.30;1.33;;;17.40;71.20;;;;;;5016436;28;20037;-75
2023/10/05 00:36:24;;;;;;;2.05;1.15;;;17.40;71.20;;;;;;4999834;28;20034;-74
2023/10/05 00:38:51;;;;;;;2.10;1.48;;;17.40;71.30;;;;;;4998905;28;20109;-76
2023/10/05 00:41:17;;;;;;;1.65;1.20;;;17.40;71.20;;;;;;5015424;28;20041;-76
2023/10/05 00:43:46;;;;;;;2.38;1.50;;;17.40;71.20;;;;;;4982622;28;20046;-75
2023/10/05 00:46:19;;;;;;;1.85;1.20;;;17.40;71.30;;;;;;5016631;28;20032;-75
2023/10/05 00:51:34;;;;;;;2.08;1.30;;;17.40;71.30;;;;;;4971649;28;20046;-75
2023/10/05 00:54:05;;;;;;;2.05;1.23;;;17.40;71.30;;;;;;5015166;28;20034;-75
2023/10/05 00:56:35;;;;;;;1.40;1.08;;;17.40;71.30;;;;;;5015419;28;20048;-75
2023/10/05 00:59:06;;;;;;;2.45;1.48;;;17.40;71.30;;;;;;5016014;28;20046;-75
2023/10/05 01:02:21;;;;;;;1.35;1.17;;;17.40;71.30;;;;;;5015087;28;20042;-75
2023/10/05 01:04:34;;;;;;;2.28;1.30;;;17.40;71.30;;;;;;4981378;28;20073;-75
2023/10/05 01:07:43;;;;;;;2.50;1.30;;;17.40;71.30;;;;;;4998685;28;20029;-75
2023/10/05 01:12:43;;;;;;;1.98;1.50;;;17.40;71.40;;;;;;5014426;28;20033;-75
2023/10/05 01:15:15;;;;;;;1.33;1.23;;;17.40;71.30;;;;;;5016624;28;20054;-75
2023/10/05 01:17:41;;;;;;;1.80;1.40;;;17.40;71.30;;;;;;5014726;28;20044;-75
2023/10/05 01:22:44;;;;;;;2.10;1.40;;;17.50;71.40;;;;;;5014620;28;20044;-74
2023/10/05 01:25:14;;;;;;;1.70;1.42;;;17.40;71.30;;;;;;4982545;28;20030;-74
2023/10/05 01:27:50;;;;;;;1.92;1.40;;;17.40;71.40;;;;;;5016312;28;20065;-75
2023/10/05 01:30:17;;;;;;;2.95;1.20;;;17.40;71.40;;;;;;5015310;28;20082;-76
2023/10/05 01:32:44;;;;;;;2.17;1.40;;;17.40;71.40;;;;;;5014321;28;20482;-74
2023/10/05 01:35:12;;;;;;;1.45;1.10;;;17.40;71.40;;;;;;4998019;28;20387;-74
2023/10/05 01:37:46;;;;;;;2.47;1.40;;;17.40;71.40;;;;;;4997809;28;20057;-75
2023/10/05 01:42:41;;;;;;;1.67;1.42;;;17.40;71.40;;;;;;5014165;28;20030;-75
2023/10/05 01:45:08;;;;;;;1.83;1.27;;;17.40;71.50;;;;;;4998897;28;20133;-75
2023/10/05 01:47:33;;;;;;;1.95;1.20;;;17.40;71.50;;;;;;4982385;28;20547;-75
2023/10/05 01:49:59;;;;;;;1.75;1.25;;;17.40;71.50;;;;;;4997844;28;20125;-74
2023/10/05 01:52:25;;;;;;;2.28;1.23;;;17.40;71.40;;;;;;5014241;28;20071;-74
2023/10/05 01:54:53;;;;;;;2.10;1.52;;;17.40;71.40;;;;;;4981473;28;20501;-75
2023/10/05 01:57:20;;;;;;;2.55;1.33;;;17.40;71.40;;;;;;5013849;28;20056;-75
2023/10/05 01:59:46;;;;;;;3.05;1.55;;;17.40;71.40;;;;;;4997482;28;20026;-75
2023/10/05 02:02:15;;;;;;;1.77;1.45;;;17.40;71.40;;;;;;4965676;28;20033;-75
2023/10/05 02:04:45;;;;;;;3.25;1.35;;;17.40;71.40;;;;;;5013806;28;20036;-75
2023/10/05 02:07:18;;;;;;;2.38;1.50;;;17.40;71.50;;;;;;5013880;28;20471;-74
2023/10/05 02:09:44;;;;;;;3.60;1.40;;;17.40;71.40;;;;;;4982537;28;20041;-75
2023/10/05 02:12:10;;;;;;;2.28;1.45;;;17.40;71.40;;;;;;4981152;28;20030;-75
2023/10/05 02:14:40;;;;;;;2.97;1.40;;;17.40;71.40;;;;;;4981206;28;20509;-75
2023/10/05 02:17:07;;;;;;;1.65;1.30;;;17.40;71.30;;;;;;5013530;28;20515;-75
2023/10/05 02:19:36;;;;;;;2.90;1.58;;;17.40;71.40;;;;;;5014875;28;20030;-74
2023/10/05 02:22:10;;;;;;;2.95;1.55;;;17.40;71.40;;;;;;5013577;28;20030;-75
2023/10/05 02:24:36;;;;;;;2.45;1.50;;;17.40;71.40;;;;;;4996978;28;20022;-76
2023/10/05 02:29:31;;;;;;;2.17;1.30;;;17.40;71.40;;;;;;4997365;28;20040;-75
2023/10/05 02:34:42;;;;;;;1.75;1.25;;;17.40;71.40;;;;;;5015117;28;20116;-75
2023/10/05 02:37:11;;;;;;;2.25;1.40;;;17.40;71.40;;;;;;5015218;28;20105;-75
2023/10/05 02:39:41;;;;;;;1.73;1.35;;;17.40;71.40;;;;;;4997237;28;20057;-75
2023/10/05 02:42:12;;;;;;;1.88;1.45;;;17.40;71.40;;;;;;4997272;28;20030;-75
2023/10/05 02:44:39;;;;;;;1.58;1.13;;;17.40;71.40;;;;;;4997802;28;20033;-75
2023/10/05 02:47:08;;;;;;;2.40;1.40;;;17.40;71.40;;;;;;4997654;28;20080;-75
2023/10/05 02:49:39;;;;;;;3.25;1.67;;;17.40;71.40;;;;;;5013059;28;20078;-75
2023/10/05 02:52:20;;;;;;;1.60;1.35;;;17.30;71.40;;;;;;4981237;28;20026;-74
2023/10/05 02:54:49;;;;;;;1.90;1.30;;;17.30;71.40;;;;;;4980728;28;20033;-75
2023/10/05 02:57:19;;;;;;;1.80;1.42;;;17.30;71.30;;;;;;4997202;28;20119;-76
2023/10/05 02:59:46;;;;;;;3.78;1.55;;;17.30;71.50;;;;;;4997967;28;20030;-75
2023/10/05 03:02:16;;;;;;;1.83;1.45;;;17.30;71.40;;;;;;5012874;28;20026;-75
2023/10/05 03:04:57;;;;;;;2.58;1.52;;;17.30;71.40;;;;;;5013199;28;20379;-75
2023/10/05 03:07:25;;;;;;;2.72;1.40;;;17.30;71.40;;;;;;5013081;28;20038;-75
2023/10/05 03:09:52;;;;;;;1.90;1.40;;;17.30;71.40;;;;;;4996633;28;20061;-75
2023/10/05 03:12:25;;;;;;;1.65;1.23;;;17.30;71.50;;;;;;4996344;28;20045;-74
2023/10/05 03:14:54;;;;;;;2.42;1.40;;;17.30;71.40;;;;;;5012244;28;20502;-75
2023/10/05 03:17:22;;;;;;;1.80;1.33;;;17.30;71.50;;;;;;5013891;28;20065;-75
2023/10/05 03:19:52;;;;;;;2.58;1.40;;;17.30;72.20;;;;;;4996734;28;20062;-75
2023/10/05 03:22:23;;;;;;;3.75;1.63;;;17.30;71.50;;;;;;4996596;28;20034;-75
2023/10/05 03:24:49;;;;;;;1.67;1.30;;;17.20;71.50;;;;;;4996665;28;20034;-75
2023/10/05 03:27:16;;;;;;;2.53;1.42;;;17.20;71.50;;;;;;5013251;28;20030;-75
2023/10/05 03:29:46;;;;;;;2.63;1.33;;;17.20;71.50;;;;;;5014249;28;20084;-76
2023/10/05 03:32:14;;;;;;;2.70;1.45;;;17.20;71.60;;;;;;4996461;28;20069;-75
2023/10/05 03:34:53;;;;;;;2.42;1.30;;;17.20;71.50;;;;;;4996412;28;20438;-76
2023/10/05 03:37:19;;;;;;;2.60;1.40;;;17.20;71.50;;;;;;5012820;28;20030;-75
2023/10/05 03:42:17;;;;;;;1.80;1.40;;;17.20;71.50;;;;;;4981467;28;20038;-75
2023/10/05 03:44:43;;;;;;;2.03;1.42;;;17.20;71.50;;;;;;4996236;28;20034;-76
2023/10/05 03:47:11;;;;;;;2.70;1.40;;;17.20;71.60;;;;;;5012292;28;20030;-75
2023/10/05 03:49:37;;;;;;;2.28;1.40;;;17.20;71.60;;;;;;4996027;28;20578;-75
2023/10/05 03:52:06;;;;;;;1.80;1.27;;;17.20;71.60;;;;;;5013459;28;20038;-75
2023/10/05 03:54:38;;;;;;;3.30;1.40;;;17.20;71.60;;;;;;4964670;28;20060;-75
2023/10/05 03:57:10;;;;;;;1.80;1.42;;;17.20;71.60;;;;;;5012501;28;20034;-75
2023/10/05 03:59:36;;;;;;;3.88;1.80;;;17.20;71.60;;;;;;4980722;28;20030;-75
2023/10/05 04:02:04;;;;;;;1.70;1.30;;;17.20;71.60;;;;;;4963691;28;20080;-75
2023/10/05 04:04:35;;;;;;;2.20;1.50;;;17.20;71.60;;;;;;4996385;28;20034;-75
2023/10/05 04:07:02;;;;;;;1.83;1.42;;;17.10;71.60;;;;;;5012494;28;20034;-75
2023/10/05 04:09:30;;;;;;;1.83;1.40;;;17.10;71.90;;;;;;4996070;28;20037;-75
2023/10/05 04:11:56;;;;;;;3.33;1.80;;;17.10;71.70;;;;;;5013901;28;20034;-75
2023/10/05 04:14:23;;;;;;;3.53;1.60;;;17.10;71.70;;;;;;5011808;28;20061;-75
2023/10/05 04:16:49;;;;;;;2.72;1.50;;;17.10;71.70;;;;;;5012032;28;20038;-74
2023/10/05 04:19:18;;;;;;;2.90;1.60;;;17.10;71.70;;;;;;4979527;28;20124;-75
2023/10/05 04:21:45;;;;;;;1.95;1.50;;;17.10;71.70;;;;;;5011829;28;20501;-74
2023/10/05 04:24:14;;;;;;;1.95;1.48;;;17.10;71.70;;;;;;5012477;28;20068;-75
2023/10/05 04:26:44;;;;;;;2.88;1.40;;;17.10;71.80;;;;;;5012976;28;20037;-77
2023/10/05 04:29:11;;;;;;;2.40;1.48;;;17.10;71.80;;;;;;5013463;28;20108;-75
2023/10/05 04:31:37;;;;;;;1.60;1.13;;;17.10;71.80;;;;;;4995475;28;20115;-76
2023/10/05 04:34:11;;;;;;;2.38;1.55;;;17.10;71.80;;;;;;4979407;28;20069;-75
2023/10/05 04:36:38;;;;;;;2.30;1.50;;;17.10;71.80;;;;;;4996014;28;20038;-75
2023/10/05 04:39:06;;;;;;;2.13;1.38;;;17.10;71.80;;;;;;5013209;28;20041;-75
2023/10/05 04:41:39;;;;;;;2.53;1.67;;;17.10;71.80;;;;;;5000091;28;20605;-75
2023/10/05 04:44:12;;;;;;;3.03;1.77;;;17.10;71.80;;;;;;5015514;28;20041;-75
2023/10/05 04:46:47;;;;;;;1.88;1.40;;;17.00;71.80;;;;;;4999761;28;20036;-76
2023/10/05 04:49:13;;;;;;;;;;;17.00;71.80;;;;;;5000125;28;20038;-75
2023/10/05 04:51:40;;;;;;;1.23;1.15;;;17.00;71.70;;;;;;5016656;28;19959;-75
2023/10/05 04:54:11;;;;;;;2.35;1.70;;;17.00;71.70;;;;;;4998659;28;20046;-74
2023/10/05 04:56:47;;;;;;;2.15;1.35;;;17.00;71.80;;;;;;5016473;28;20048;-75
2023/10/05 05:07:02;;;;;;;1.90;1.50;;;17.00;72.60;;;;;;5016737;28;20121;-75
2023/10/05 05:09:34;;;;;;;3.17;1.75;;;17.00;71.90;;;;;;4999487;28;20097;-75
2023/10/05 05:12:03;;;;;;;2.20;1.48;;;16.90;71.80;;;;;;5000076;28;20450;-75
2023/10/05 05:14:53;;;;;;;2.72;1.50;;;16.90;71.80;;;;;;4998165;28;20057;-76
2023/10/05 05:17:21;;;;;;;2.80;1.45;;;16.90;71.90;;;;;;5015628;28;20038;-74
2023/10/05 05:19:47;;;;;;;2.88;1.83;;;16.90;71.90;;;;;;5015589;28;20085;-75
2023/10/05 05:22:14;;;;;;;3.00;1.80;;;17.00;71.90;;;;;;5016678;28;20034;-74
2023/10/05 05:24:44;;;;;;;2.28;1.50;;;16.90;71.90;;;;;;4998275;28;20044;-75
2023/10/05 05:29:45;;;;;;;;;;;16.90;71.90;;;;;;4999737;28;20030;-75
2023/10/05 05:32:11;;;;;;;1.90;1.25;;;16.90;71.80;;;;;;4982230;28;19905;-75
2023/10/05 05:34:41;;;;;;;2.35;1.60;;;16.90;71.80;;;;;;5014150;28;20041;-75
2023/10/05 05:39:48;;;;;;;2.83;1.67;;;16.80;71.90;;;;;;5014710;28;20180;-76
2023/10/05 05:42:14;;;;;;;2.15;1.50;;;16.80;71.90;;;;;;4965935;28;20084;-76
2023/10/05 05:44:41;;;;;;;3.15;1.70;;;16.90;72.00;;;;;;4997969;28;20060;-75
2023/10/05 05:47:10;;;;;;;2.65;1.67;;;16.80;72.00;;;;;;4997998;28;20062;-75
2023/10/05 05:49:38;;;;;;;3.20;1.65;;;16.90;72.10;;;;;;5014179;28;20049;-76
2023/10/05 05:52:05;;;;;;;1.73;1.50;;;16.80;72.00;;;;;;4980728;28;20125;-74
2023/10/05 05:54:32;;;;;;;3.70;1.83;;;16.80;72.10;;;;;;4998126;28;20486;-74
2023/10/05 05:56:58;;;;;;;1.98;1.50;;;16.80;72.00;;;;;;5015521;28;20407;-75
2023/10/05 05:59:23;;;;;;;2.58;1.70;;;16.80;72.10;;;;;;5014085;28;20037;-75
2023/10/05 06:01:50;;;;;;;2.97;1.70;;;16.80;72.10;;;;;;5014899;28;20424;-75
2023/10/05 06:04:16;;;;;;;2.47;1.55;;;16.80;72.10;;;;;;4997916;28;20034;-75
2023/10/05 06:06:44;;;;;;;2.25;1.60;;;16.80;72.10;;;;;;5013881;28;20100;-75
2023/10/05 06:09:13;;;;;;;3.45;2.05;;;16.80;72.10;;;;;;5015396;28;20436;-76
2023/10/05 06:11:40;;;;;;;1.88;1.58;;;16.80;72.10;;;;;;4997731;28;20030;-76
2023/10/05 06:14:06;;;;;;;3.33;1.65;;;16.70;72.10;;;;;;4965057;28;20062;-76
2023/10/05 06:16:34;;;;;;;2.65;1.80;;;16.70;72.10;;;;;;4981005;28;20045;-76
2023/10/05 06:19:01;;;;;;;2.70;1.75;;;16.70;72.10;;;;;;4997990;28;20510;-75
2023/10/05 06:21:27;;;;;;;2.55;1.70;;;16.70;72.10;;;;;;4981088;28;20031;-75
2023/10/05 06:23:54;;;;;;;2.88;1.77;;;16.70;72.10;;;;;;5013635;28;20041;-75
2023/10/05 06:26:21;;;;;;;2.72;1.88;;;16.70;72.20;;;;;;4997165;28;20034;-75
2023/10/05 06:28:47;;;;;;;2.22;1.58;;;16.70;72.20;;;;;;4997493;28;20033;-75
2023/10/05 06:31:13;;;;;;;2.50;1.67;;;16.70;72.20;;;;;;4980653;28;20068;-76
2023/10/05 06:33:42;;;;;;;2.30;1.60;;;16.70;72.20;;;;;;4997031;28;20034;-75
2023/10/05 06:36:08;;;;;;;2.63;1.40;;;16.70;72.30;;;;;;5014606;28;20096;-75
2023/10/05 06:38:35;;;;;;;3.15;1.65;;;16.70;72.30;;;;;;5014364;28;20026;-75
2023/10/05 06:41:03;;;;;;;3.20;1.80;;;16.70;72.30;;;;;;4997696;28;20430;-76
2023/10/05 06:43:35;;;;;;;2.88;1.63;;;16.60;72.30;;;;;;5014114;28;20041;-75
2023/10/05 06:46:09;;;;;;;3.20;1.80;;;16.60;72.30;;;;;;5012814;28;20053;-76
2023/10/05 06:48:36;;;;;;;2.80;1.77;;;16.60;72.30;;;;;;4981985;28;20494;-75
2023/10/05 06:51:03;;;;;;;3.13;1.90;;;16.60;72.30;;;;;;4997494;28;20441;-76
2023/10/05 06:53:28;;;;;;;1.83;1.65;;;16.60;72.40;;;;;;5012961;28;20034;-75
2023/10/05 06:55:56;;;;;;;2.38;1.80;;;16.60;72.40;;;;;;4980548;28;20041;-76
2023/10/05 06:58:22;;;;;;;2.60;1.65;;;16.60;72.40;;;;;;4981362;28;20121;-76
2023/10/05 07:00:48;;;;;;;3.17;2.03;;;16.60;72.40;;;;;;4996490;28;20116;-76
2023/10/05 07:03:13;;;;;;;2.10;1.65;;;16.60;72.40;;;;;;4997133;28;20041;-76
2023/10/05 07:05:39;;;;;;;3.08;1.80;;;16.60;72.40;;;;;;4980351;28;20053;-75
2023/10/05 07:08:07;;;;;;;2.90;1.73;;;16.60;72.40;;;;;;5013635;28;20038;-75
2023/10/05 07:10:33;;;;;;;3.47;2.03;;;16.60;72.40;;;;;;5013747;28;20120;-75
2023/10/05 07:12:58;;;;;;;2.45;1.83;;;16.60;72.40;;;;;;4997134;28;20129;-75
2023/10/05 07:15:24;;;;;;;2.50;1.70;;;16.70;72.50;;;;;;4976488;28;20054;-76
2023/10/05 07:17:50;;;;;;;2.58;1.58;;;16.60;72.40;;;;;;4993384;28;20041;-75
2023/10/05 07:20:17;;;;;;;3.10;1.85;;;16.60;72.40;;;;;;4993453;28;20415;-75
2023/10/05 07:22:44;;;;;;;2.45;1.80;;;16.70;72.50;;;;;;5009494;28;20513;-76
2023/10/05 07:25:12;;;;;;;1.67;1.50;;;16.70;72.50;;;;;;4992790;28;20579;-75
2023/10/05 07:27:38;;;;;;;2.75;1.63;;;16.70;72.50;;;;;;4993993;28;20109;-75
2023/10/05 07:30:05;;;;;;;2.75;1.80;;;16.70;72.50;;;;;;4976774;28;20030;-76
2023/10/05 07:32:34;;;;;;;2.53;1.80;;;16.70;72.40;;;;;;4993479;28;20061;-76
2023/10/05 07:35:05;;;;;;;2.50;1.65;;;16.70;72.50;;;;;;4992743;28;20471;-75
2023/10/05 07:37:31;;;;;;;2.75;1.67;;;16.70;72.50;;;;;;5009560;28;20460;-75
2023/10/05 07:39:58;;;;;;;4.15;2.13;;;16.70;72.60;;;;;;4992773;28;20084;-76
2023/10/05 07:42:26;;;;;;;3.67;1.92;;;16.70;72.50;;;;;;5009106;28;20041;-75
2023/10/05 07:44:51;;;;;;;2.97;1.60;;;16.70;72.50;;;;;;5008942;28;20038;-75
2023/10/05 07:47:17;;;;;;;3.25;1.88;;;16.70;72.50;;;;;;4960295;28;20041;-75
2023/10/05 07:49:43;;;;;;;3.13;1.88;;;16.70;72.50;;;;;;4992822;28;20039;-75
2023/10/05 07:52:12;;;;;;;2.85;1.98;;;16.80;72.50;;;;;;4994255;28;20034;-76
2023/10/05 07:54:38;;;;;;;2.25;1.70;;;16.80;72.60;;;;;;4992660;28;20042;-75
2023/10/05 07:57:08;;;;;;;2.10;1.60;;;16.80;72.60;;;;;;4993657;28;20026;-75
2023/10/05 07:59:35;;;;;;;2.85;1.73;;;16.80;72.60;;;;;;4992950;28;20041;-75
2023/10/05 08:02:01;;;;;;;3.17;1.75;;;16.80;72.60;;;;;;4992554;28;20117;-75
2023/10/05 08:04:28;;;;;;;2.17;1.50;;;16.80;72.50;;;;;;5008919;28;20085;-75
2023/10/05 08:06:54;;;;;;;2.50;1.70;;;16.80;72.60;;;;;;4976590;28;20468;-76
2023/10/05 08:09:23;;;;;;;2.08;1.60;;;16.90;72.60;;;;;;4994034;28;20034;-75
2023/10/05 08:11:50;;;;;;;2.50;1.58;;;16.80;72.60;;;;;;4993676;28;20029;-76
2023/10/05 08:14:17;;;;;;;2.28;1.90;;;16.90;72.70;;;;;;4993564;28;20034;-76
2023/10/05 08:16:45;;;;;;;2.05;1.60;;;16.90;72.60;;;;;;5000205;28;20029;-76
2023/10/05 08:19:10;;;;;;;2.28;1.80;;;16.90;72.60;;;;;;5017370;28;20040;-76
2023/10/05 08:21:36;;;;;;;2.15;1.40;;;16.90;72.70;;;;;;5016253;28;20038;-75
2023/10/05 08:24:02;;;;;;;2.65;1.80;;;16.90;72.70;;;;;;5015783;28;20045;-76
2023/10/05 08:26:29;;;;;;;2.75;1.60;;;17.00;72.70;;;;;;4999453;28;20087;-75
2023/10/05 08:28:58;;;;;;;2.33;1.65;;;17.00;72.70;;;;;;5015566;28;20041;-75
2023/10/05 08:31:24;;;;;;;2.08;1.73;;;17.00;72.70;;;;;;4983186;28;20526;-75
2023/10/05 08:33:53;;;;;;;2.55;1.55;;;17.00;72.70;;;;;;4998937;28;20121;-76
2023/10/05 08:36:20;;;;;;;2.90;1.77;;;17.00;72.70;;;;;;4999626;28;20040;-75
2023/10/05 08:38:48;;;;;;;2.83;1.90;;;17.10;72.70;;;;;;4998927;28;20038;-75
2023/10/05 08:41:31;;;;;;;2.22;1.50;;;17.10;72.70;;;;;;4999782;28;20042;-77
2023/10/05 08:44:10;;;;;;;2.67;1.55;;;17.10;72.80;;;;;;5000178;28;20062;-75
2023/10/05 08:46:43;;;;;;;2.83;1.75;;;17.10;72.70;;;;;;4984986;28;20034;-76
2023/10/05 08:49:15;;;;;;;3.20;1.98;;;17.10;72.60;;;;;;4983246;28;20033;-75
2023/10/05 08:51:41;;;;;;;2.47;2.08;;;17.10;72.60;;;;;;5015736;28;20135;-75
2023/10/05 08:54:11;;;;;;;2.45;1.58;;;17.20;72.50;;;;;;5015216;28;20478;-75
2023/10/05 08:56:42;;;;;;;2.17;1.65;;;17.30;72.60;;;;;;5015376;28;20416;-76
2023/10/05 08:59:13;;;;;;;2.72;1.80;;;17.30;72.50;;;;;;4999205;28;20030;-75
2023/10/05 09:01:42;;;;;;;2.70;1.67;;;17.30;72.40;;;;;;4998805;28;20033;-76
2023/10/05 09:07:08;;;;;;;1.50;1.27;;;17.40;72.30;;;;;;5015359;28;20383;-76
2023/10/05 09:09:39;;;;;;;2.75;1.63;;;17.40;72.30;;;;;;5016814;28;20034;-75
2023/10/05 09:12:32;;;;;;;2.03;1.70;;;17.40;72.10;;;;;;5016248;28;20034;-76
2023/10/05 09:17:54;;;;;;;3.17;1.90;;;17.50;72.10;;;;;;5014805;28;20033;-76
2023/10/05 09:20:21;;;;;;;2.30;1.52;;;17.50;72.10;;;;;;5015986;28;20411;-76
2023/10/05 09:22:51;;;;;;;2.40;1.65;;;17.60;72.10;;;;;;5014749;28;20026;-76
2023/10/05 09:25:26;;;;;;;2.67;1.70;;;17.60;72.10;;;;;;4998940;28;20022;-76
2023/10/05 09:27:55;;;;;;;2.78;1.70;;;17.70;72.10;;;;;;5014938;28;20040;-76
2023/10/05 09:30:22;;;;;;;2.75;1.65;;;17.70;72.60;;;;;;4998392;28;20026;-76
2023/10/05 09:32:48;;;;;;;1.80;1.38;;;17.70;71.90;;;;;;5014501;28;20038;-76
2023/10/05 09:35:27;;;;;;;2.83;1.80;;;17.80;72.00;;;;;;4998224;28;20065;-77
2023/10/05 09:38:00;;;;;;;2.95;2.10;;;17.80;72.00;;;;;;5014411;28;20052;-76
2023/10/05 09:40:28;;;;;;;2.22;1.58;;;17.80;71.90;;;;;;4998345;28;20109;-75
2023/10/05 09:43:00;;;;;;;2.97;1.67;;;17.90;71.90;;;;;;4997952;28;20058;-77
2023/10/05 09:45:29;;;;;;;2.55;1.63;;;17.90;71.90;;;;;;5014677;28;20092;-75
2023/10/05 09:48:00;;;;;;;1.65;1.45;;;17.90;71.80;;;;;;4998169;28;20072;-76
2023/10/05 09:50:29;;;;;;;2.45;1.60;;;18.00;71.80;;;;;;5014989;28;20053;-76
2023/10/05 09:52:59;;;;;;;2.10;1.30;;;18.00;71.80;;;;;;4997915;28;20509;-76
2023/10/05 09:55:25;;;;;;;2.47;1.38;;;18.00;71.80;;;;;;5014128;28;20121;-75
2023/10/05 09:57:56;;;;;;;3.47;1.92;;;18.00;71.70;;;;;;4997749;28;20062;-76
2023/10/05 10:03:04;;;;;;;1.77;1.40;;;18.10;71.70;;;;;;5000584;28;20049;-76
2023/10/05 10:05:35;;;;;;;2.25;1.40;;;18.10;71.60;;;;;;5015431;28;20475;-76
2023/10/05 10:08:12;;;;;;;2.28;1.50;;;18.20;71.70;;;;;;5014195;28;20030;-76
2023/10/05 10:11:03;;;;;;;3.38;1.92;;;18.20;71.70;;;;;;5014273;28;20029;-77
2023/10/05 10:13:49;;;;;;;1.98;1.40;;;18.20;71.60;;;;;;5015048;28;20471;-75
2023/10/05 10:16:22;;;;;;;3.40;1.50;;;18.30;71.60;;;;;;4997431;28;20506;-77
2023/10/05 10:19:03;;;;;;;1.90;1.17;;;18.30;71.60;;;;;;4997331;28;20560;-76
2023/10/05 10:21:42;;;;;;;1.35;1.20;;;18.30;71.50;;;;;;5014955;28;20026;-77
2023/10/05 10:24:14;;;;;;;2.47;1.52;;;18.40;71.60;;;;;;4997460;28;20041;-76
2023/10/05 10:27:07;;;;;;;2.50;1.55;;;18.40;71.50;;;;;;5015080;28;20030;-76
2023/10/05 10:30:01;;;;;;;1.38;1.15;;;18.40;71.50;;;;;;4983266;28;20514;-76
2023/10/05 10:32:34;;;;;;;2.00;1.33;;;18.50;71.60;;;;;;4994662;28;20491;-76
2023/10/05 10:35:12;;;;;;;1.90;1.50;;;18.50;72.10;;;;;;5013733;28;20038;-76
2023/10/05 10:37:39;;;;;;;1.10;1.10;;;18.50;71.40;;;;;;5013389;28;20044;-76
2023/10/05 10:40:24;;;;;;;2.30;1.38;;;18.60;71.40;;;;;;5013149;28;20053;-77
2023/10/05 10:42:54;;;;;;;;;;;18.60;71.40;;;;;;5014113;28;20034;-77
2023/10/05 10:45:24;;;;;;;1.67;1.20;;;18.60;71.30;;;;;;4996777;28;19909;-76
2023/10/05 10:47:52;;;;;;;2.22;1.50;;;18.70;71.20;;;;;;4996692;28;20029;-76
2023/10/05 10:50:22;;;;;;;1.83;1.20;;;18.70;71.30;;;;;;4981583;28;20355;-76
2023/10/05 10:52:51;;;;;;;3.20;1.80;;;18.70;71.30;;;;;;4981472;28;20050;-76
2023/10/05 10:55:20;;;;;;;1.75;1.45;;;18.70;71.30;;;;;;4996831;28;20037;-76
2023/10/05 10:57:57;;;;;;;2.88;1.52;;;18.70;71.20;;;;;;5013107;28;20482;-76
2023/10/05 11:03:11;;;;;;;1.92;1.30;;;18.80;71.20;;;;;;5012954;28;20033;-77
2023/10/05 11:05:43;;;;;;;1.92;1.50;;;18.90;71.20;;;;;;4996091;28;20037;-76
2023/10/05 11:08:11;;;;;;;2.38;1.50;;;18.90;71.20;;;;;;5013065;28;20072;-76
2023/10/05 11:10:37;;;;;;;2.72;1.50;;;18.90;71.10;;;;;;4996700;28;20033;-76
2023/10/05 11:13:14;;;;;;;2.17;1.58;;;18.90;71.00;;;;;;4980160;28;20069;-77
2023/10/05 11:15:50;;;;;;;2.05;1.45;;;19.00;71.00;;;;;;5012859;28;20049;-76
2023/10/05 11:18:19;;;;;;;2.33;1.40;;;19.10;71.00;;;;;;4996962;28;20069;-75
2023/10/05 11:20:51;;;;;;;4.03;1.63;;;19.10;71.00;;;;;;5013586;28;20045;-75
2023/10/05 11:23:25;;;;;;;2.45;1.45;;;19.10;70.90;;;;;;4997487;28;20046;-75
2023/10/05 11:26:17;;;;;;;2.08;1.25;;;19.10;70.80;;;;;;4997191;28;20494;-77
2023/10/05 11:28:39;;;;;;;1.52;1.20;;;19.20;70.80;;;;;;5013440;28;20481;-77
2023/10/05 11:31:04;;;;;;;4.30;1.50;;;19.20;70.70;;;;;;5012818;28;20030;-76
2023/10/05 11:33:34;;;;;;;2.10;1.20;;;19.30;70.70;;;;;;5012438;28;20049;-76
2023/10/05 11:36:17;;;;;;;2.63;1.48;;;19.30;70.70;;;;;;5014525;28;20034;-75
2023/10/05 11:38:48;;;;;;;2.78;1.40;;;19.30;70.60;;;;;;5012765;28;20137;-76
2023/10/05 11:41:16;;;;;;;2.20;1.50;;;19.40;70.60;;;;;;4996340;28;20026;-76
2023/10/05 11:43:44;;;;;;;2.05;1.50;;;19.40;70.60;;;;;;4965316;28;20034;-76
2023/10/05 11:46:43;;;;;;;2.80;1.60;;;19.40;70.60;;;;;;4996115;28;20062;-76
2023/10/05 11:49:04;;;;;;;2.78;1.30;;;19.50;70.60;;;;;;4996689;28;20092;-76
2023/10/05 11:51:56;;;;;;;2.10;1.27;;;19.50;70.50;;;;;;4984406;28;20401;-76
2023/10/05 11:54:24;;;;;;;2.28;1.25;;;19.50;70.50;;;;;;5018135;28;20046;-76
2023/10/05 11:56:55;;;;;;;1.38;1.20;;;19.50;70.40;;;;;;4984888;28;20030;-76
2023/10/05 11:59:28;;;;;;;1.70;1.15;;;19.60;70.50;;;;;;4984170;28;20034;-76
2023/10/05 12:01:54;;;;;;;1.60;1.20;;;19.60;70.50;;;;;;4999838;28;20026;-77
2023/10/05 12:04:20;;;;;;;2.33;1.33;;;19.70;70.40;;;;;;5017200;28;20037;-76
2023/10/05 12:06:52;;;;;;;1.67;1.20;;;19.70;70.40;;;;;;4999657;28;20125;-77
2023/10/05 12:09:27;;;;;;;2.65;1.63;;;19.70;70.40;;;;;;5000099;28;20125;-76
2023/10/05 12:11:58;;;;;;;2.42;1.50;;;19.70;70.30;;;;;;5016338;28;20075;-76
2023/10/05 12:14:27;;;;;;;1.42;1.27;;;19.80;70.20;;;;;;5016992;28;20045;-77
2023/10/05 12:16:57;;;;;;;1.85;1.52;;;19.80;70.20;;;;;;4999885;28;20359;-76
2023/10/05 12:19:30;;;;;;;3.63;1.38;;;19.80;70.20;;;;;;5015876;28;20382;-76
2023/10/05 12:21:59;;;;;;;2.28;1.50;;;19.80;70.10;;;;;;5016867;28;20032;-76
2023/10/05 12:24:26;;;;;;;3.38;1.60;;;19.90;70.10;;;;;;5017353;28;20064;-76
2023/10/05 12:26:52;;;;;;;1.67;1.20;;;19.90;70.10;;;;;;5017447;28;20065;-76
2023/10/05 12:29:18;;;;;;;3.30;1.50;;;19.90;70.00;;;;;;5015979;28;20033;-76
2023/10/05 12:31:47;;;;;;;2.20;1.30;;;20.00;70.00;;;;;;5016080;28;20113;-76
2023/10/05 12:34:16;;;;;;;1.52;1.13;;;20.00;70.00;;;;;;5015525;28;20192;-75
2023/10/05 12:36:49;;;;;;;2.08;1.30;;;20.00;70.00;;;;;;5015665;28;20038;-76
2023/10/05 12:39:27;;;;;;;2.70;1.40;;;20.00;69.90;;;;;;5016839;28;20045;-76
2023/10/05 12:41:54;;;;;;;1.98;1.40;;;20.00;69.90;;;;;;4984428;28;20041;-75
2023/10/05 12:44:21;;;;;;;2.25;1.50;;;20.10;69.90;;;;;;4999502;28;20467;-75
2023/10/05 12:46:47;;;;;;;2.28;1.40;;;20.10;69.80;;;;;;5015435;28;20503;-77
2023/10/05 12:49:15;;;;;;;2.67;1.70;;;20.10;69.80;;;;;;4999772;28;20030;-76
2023/10/05 12:51:45;;;;;;;1.38;1.27;;;20.10;69.80;;;;;;5015623;28;20105;-76
2023/10/05 12:54:18;;;;;;;2.65;1.30;;;20.20;69.80;;;;;;4999024;28;20033;-75
2023/10/05 12:56:50;;;;;;;2.25;1.33;;;20.20;69.70;;;;;;4999450;28;20041;-76
2023/10/05 12:59:19;;;;;;;1.58;1.23;;;20.20;69.70;;;;;;4999396;28;20037;-76
2023/10/05 13:01:46;;;;;;;2.33;1.38;;;20.20;69.70;;;;;;4981978;28;20478;-75
2023/10/05 13:04:17;;;;;;;2.20;1.33;;;20.20;69.70;;;;;;4998946;28;20470;-76
2023/10/05 13:06:45;;;;;;;1.67;1.40;;;20.20;69.70;;;;;;4999577;28;20034;-76
2023/10/05 13:09:13;;;;;;;1.77;1.35;;;20.30;69.70;;;;;;5017045;28;20054;-77
2023/10/05 13:11:47;;;;;;;1.92;1.30;;;20.30;69.70;;;;;;4983154;28;20037;-78
2023/10/05 13:14:14;;;;;;;2.33;1.40;;;20.30;69.60;;;;;;4999053;28;20473;-77
2023/10/05 13:16:40;;;;;;;2.30;1.45;;;20.30;69.60;;;;;;5014947;28;20457;-77
2023/10/05 13:19:09;;;;;;;3.28;1.60;;;20.30;69.60;;;;;;4998672;28;20116;-76
2023/10/05 13:21:36;;;;;;;1.67;1.30;;;20.30;69.60;;;;;;5016449;28;20092;-77
2023/10/05 13:24:06;;;;;;;1.98;1.30;;;20.40;69.60;;;;;;4999086;28;20036;-77
2023/10/05 13:26:32;;;;;;;1.83;1.33;;;20.40;69.50;;;;;;4983833;28;20096;-77
2023/10/05 13:29:04;;;;;;;2.00;1.10;;;20.40;69.50;;;;;;4998585;28;20030;-77
2023/10/05 13:31:32;;;;;;;1.40;1.23;;;20.40;69.50;;;;;;5017031;28;20081;-76
2023/10/05 13:33:59;;;;;;;2.30;1.58;;;20.40;69.50;;;;;;4998287;28;20525;-77
2023/10/05 13:36:26;;;;;;;3.30;1.63;;;20.40;69.50;;;;;;4998833;28;20038;-76
2023/10/05 13:38:54;;;;;;;2.25;1.23;;;20.50;69.50;;;;;;4998853;28;20056;-76
2023/10/05 13:41:21;;;;;;;2.35;1.25;;;20.50;69.50;;;;;;5014071;28;20129;-76
2023/10/05 13:43:52;;;;;;;2.72;1.58;;;20.50;69.50;;;;;;5014355;28;20041;-77